VXP1193 KHVN-KJQF
Flight info
| Callsign | VXP1193 |
|---|---|
| Flight time | 1h 31m |
| Altitude | 34000 |
| Route | JUDDS RONGE PWL BIZEX Q75 GVE AIROW NASCR1 |
| Aircraft | B738/M-SDE2E3FGHIRWXY/LB1 |
Departure
| Time | 2026-05-04 19:57 |
|---|---|
| Airport | Tweed New Haven Airport (KHVN) |
Arrival
| Time | 2026-05-04 21:28 |
|---|---|
| Airport | Concord-Padgett Regional Airport (KJQF) |
| Time | Latitude | Longitude | Altitude | Speed | Heading |
|---|---|---|---|---|---|
| 2026-05-04 19:25 | 41.26913 | -72.89003 | 30 ft | 0 kts | 310° |
| 2026-05-04 19:48 | 41.26910 | -72.88997 | 30 ft | 2 kts | 310° |
| 2026-05-04 19:49 | 41.26900 | -72.88982 | 30 ft | 2 kts | 310° |
| 2026-05-04 19:49 | 41.26890 | -72.88967 | 29 ft | 2 kts | 310° |
| 2026-05-04 19:49 | 41.26880 | -72.88951 | 29 ft | 2 kts | 324° |
| 2026-05-04 19:49 | 41.26866 | -72.88944 | 28 ft | 2 kts | 351° |
| 2026-05-04 19:50 | 41.26851 | -72.88944 | 28 ft | 2 kts | 16° |
| 2026-05-04 19:50 | 41.26840 | -72.88951 | 28 ft | 0 kts | 37° |
| 2026-05-04 19:50 | 41.26834 | -72.88957 | 28 ft | 1 kts | 41° |
| 2026-05-04 19:50 | 41.26834 | -72.88958 | 28 ft | 0 kts | 41° |
| 2026-05-04 19:52 | 41.26841 | -72.88950 | 28 ft | 2 kts | 41° |
| 2026-05-04 19:52 | 41.26857 | -72.88931 | 28 ft | 4 kts | 40° |
| 2026-05-04 19:53 | 41.26891 | -72.88911 | 28 ft | 6 kts | 9° |
| 2026-05-04 19:53 | 41.26933 | -72.88905 | 29 ft | 5 kts | 5° |
| 2026-05-04 19:53 | 41.26975 | -72.88899 | 30 ft | 5 kts | 7° |
| 2026-05-04 19:53 | 41.27006 | -72.88889 | 30 ft | 4 kts | 22° |
| 2026-05-04 19:54 | 41.27030 | -72.88870 | 30 ft | 3 kts | 34° |
| 2026-05-04 19:54 | 41.27045 | -72.88856 | 30 ft | 2 kts | 34° |
| 2026-05-04 19:54 | 41.27049 | -72.88853 | 30 ft | 0 kts | 37° |
| 2026-05-04 19:55 | 41.27072 | -72.88828 | 30 ft | 8 kts | 38° |
| 2026-05-04 19:55 | 41.27123 | -72.88768 | 29 ft | 8 kts | 54° |
| 2026-05-04 19:56 | 41.27118 | -72.88726 | 28 ft | 4 kts | 162° |
| 2026-05-04 19:56 | 41.27082 | -72.88727 | 28 ft | 7 kts | 182° |
| 2026-05-04 19:56 | 41.26886 | -72.88741 | 27 ft | 63 kts | 182° |
| 2026-05-04 19:56 | 41.26212 | -72.88783 | 29 ft | 130 kts | 183° |
| 2026-05-04 19:57 | 41.25234 | -72.88847 | 621 ft | 133 kts | 185° |
| 2026-05-04 19:57 | 41.24350 | -72.88912 | 1266 ft | 136 kts | 187° |
| 2026-05-04 19:57 | 41.23380 | -72.88975 | 1759 ft | 148 kts | 185° |
| 2026-05-04 19:57 | 41.22276 | -72.88947 | 2014 ft | 175 kts | 183° |
| 2026-05-04 19:58 | 41.20936 | -72.88928 | 2299 ft | 203 kts | 187° |
| 2026-05-04 19:58 | 41.19611 | -72.89588 | 2772 ft | 215 kts | 223° |
| 2026-05-04 19:58 | 41.18911 | -72.91335 | 3392 ft | 229 kts | 261° |
| 2026-05-04 19:58 | 41.19250 | -72.93462 | 4018 ft | 250 kts | 298° |
| 2026-05-04 19:59 | 41.20567 | -72.94956 | 4806 ft | 266 kts | 331° |
| 2026-05-04 19:59 | 41.22374 | -72.95655 | 5704 ft | 272 kts | 343° |
| 2026-05-04 19:59 | 41.24209 | -72.96169 | 6619 ft | 271 kts | 341° |
| 2026-05-04 19:59 | 41.25991 | -72.96812 | 7487 ft | 271 kts | 338° |
| 2026-05-04 20:00 | 41.27787 | -72.97540 | 8352 ft | 272 kts | 338° |
| 2026-05-04 20:00 | 41.29588 | -72.98254 | 9200 ft | 274 kts | 339° |
| 2026-05-04 20:00 | 41.31426 | -72.98951 | 10053 ft | 275 kts | 339° |
| 2026-05-04 20:00 | 41.33261 | -72.99632 | 10680 ft | 284 kts | 340° |
| 2026-05-04 20:01 | 41.35207 | -73.00355 | 11190 ft | 298 kts | 340° |
| 2026-05-04 20:01 | 41.37241 | -73.01105 | 11754 ft | 309 kts | 340° |
| 2026-05-04 20:01 | 41.39329 | -73.01874 | 12485 ft | 315 kts | 340° |
| 2026-05-04 20:01 | 41.41444 | -73.02653 | 13270 ft | 319 kts | 340° |
| 2026-05-04 20:02 | 41.43570 | -73.03437 | 14117 ft | 321 kts | 341° |
| 2026-05-04 20:02 | 41.45750 | -73.04242 | 14921 ft | 325 kts | 340° |
| 2026-05-04 20:02 | 41.47933 | -73.05051 | 15644 ft | 331 kts | 340° |
| 2026-05-04 20:02 | 41.50151 | -73.05875 | 16437 ft | 334 kts | 340° |
| 2026-05-04 20:03 | 41.52382 | -73.06702 | 17221 ft | 337 kts | 340° |
| 2026-05-04 20:03 | 41.54635 | -73.07538 | 17942 ft | 341 kts | 341° |
| 2026-05-04 20:03 | 41.56925 | -73.08386 | 18725 ft | 343 kts | 340° |
| 2026-05-04 20:03 | 41.59220 | -73.09239 | 19465 ft | 346 kts | 341° |
| 2026-05-04 20:04 | 41.61567 | -73.10113 | 20190 ft | 349 kts | 341° |
| 2026-05-04 20:04 | 41.63889 | -73.10976 | 20951 ft | 351 kts | 341° |
| 2026-05-04 20:04 | 41.66264 | -73.11829 | 21652 ft | 354 kts | 342° |
| 2026-05-04 20:04 | 41.68618 | -73.12706 | 22298 ft | 357 kts | 340° |
| 2026-05-04 20:05 | 41.70926 | -73.13932 | 23051 ft | 354 kts | 330° |
| 2026-05-04 20:05 | 41.72939 | -73.15707 | 23901 ft | 349 kts | 319° |
| 2026-05-04 20:05 | 41.74591 | -73.18087 | 24528 ft | 350 kts | 302° |
| 2026-05-04 20:05 | 41.75385 | -73.21132 | 25080 ft | 357 kts | 278° |
| 2026-05-04 20:06 | 41.75092 | -73.24419 | 25690 ft | 367 kts | 255° |
| 2026-05-04 20:06 | 41.73732 | -73.27378 | 26153 ft | 385 kts | 231° |
| 2026-05-04 20:06 | 41.71571 | -73.29534 | 26709 ft | 397 kts | 216° |
| 2026-05-04 20:06 | 41.69071 | -73.31220 | 27197 ft | 404 kts | 210° |
| 2026-05-04 20:07 | 41.66515 | -73.32740 | 27689 ft | 407 kts | 210° |
| 2026-05-04 20:07 | 41.63942 | -73.34358 | 28186 ft | 408 kts | 212° |
| 2026-05-04 20:07 | 41.61421 | -73.36044 | 28666 ft | 410 kts | 213° |
| 2026-05-04 20:07 | 41.58842 | -73.37806 | 29122 ft | 413 kts | 213° |
| 2026-05-04 20:08 | 41.56296 | -73.39543 | 29572 ft | 416 kts | 213° |
| 2026-05-04 20:08 | 41.53726 | -73.41283 | 30024 ft | 418 kts | 213° |
| 2026-05-04 20:08 | 41.51101 | -73.43050 | 30349 ft | 423 kts | 213° |
| 2026-05-04 20:08 | 41.48487 | -73.44797 | 30817 ft | 425 kts | 213° |
| 2026-05-04 20:09 | 41.45803 | -73.46582 | 31190 ft | 428 kts | 213° |
| 2026-05-04 20:09 | 41.43136 | -73.48352 | 31526 ft | 431 kts | 213° |
| 2026-05-04 20:09 | 41.40388 | -73.50171 | 31831 ft | 435 kts | 213° |
| 2026-05-04 20:09 | 41.37609 | -73.52006 | 32247 ft | 436 kts | 213° |
| 2026-05-04 20:10 | 41.34810 | -73.53850 | 32544 ft | 441 kts | 213° |
| 2026-05-04 20:10 | 41.32059 | -73.55722 | 32888 ft | 441 kts | 216° |
| 2026-05-04 20:10 | 41.29407 | -73.57861 | 33217 ft | 439 kts | 221° |
| 2026-05-04 20:10 | 41.26964 | -73.60353 | 33457 ft | 438 kts | 228° |
| 2026-05-04 20:11 | 41.24802 | -73.63133 | 33826 ft | 433 kts | 234° |
| 2026-05-04 20:11 | 41.20963 | -73.69376 | 33894 ft | 431 kts | 239° |
| 2026-05-04 20:12 | 41.17384 | -73.75655 | 33893 ft | 428 kts | 239° |
| 2026-05-04 20:12 | 41.13753 | -73.81911 | 33890 ft | 430 kts | 239° |
| 2026-05-04 20:13 | 41.10090 | -73.88195 | 33892 ft | 429 kts | 239° |
| 2026-05-04 20:13 | 41.06442 | -73.94395 | 33899 ft | 430 kts | 238° |
| 2026-05-04 20:14 | 41.02755 | -74.00614 | 33893 ft | 430 kts | 238° |
| 2026-05-04 20:14 | 40.99043 | -74.06834 | 33894 ft | 431 kts | 238° |
| 2026-05-04 20:15 | 40.95322 | -74.13048 | 33898 ft | 431 kts | 238° |
| 2026-05-04 20:15 | 40.91598 | -74.19249 | 33894 ft | 432 kts | 238° |
| 2026-05-04 20:16 | 40.87869 | -74.25444 | 33902 ft | 430 kts | 238° |
| 2026-05-04 20:16 | 40.84149 | -74.31614 | 33891 ft | 430 kts | 238° |
| 2026-05-04 20:17 | 40.80419 | -74.37786 | 33905 ft | 431 kts | 238° |
| 2026-05-04 20:17 | 40.76695 | -74.43939 | 33897 ft | 431 kts | 238° |
| 2026-05-04 20:18 | 40.72941 | -74.50126 | 33897 ft | 432 kts | 238° |
| 2026-05-04 20:18 | 40.69185 | -74.56303 | 33907 ft | 430 kts | 238° |
| 2026-05-04 20:19 | 40.65442 | -74.62451 | 33904 ft | 432 kts | 238° |
| 2026-05-04 20:19 | 40.61700 | -74.68581 | 33901 ft | 432 kts | 237° |
| 2026-05-04 20:20 | 40.57923 | -74.74747 | 33899 ft | 432 kts | 236° |
| 2026-05-04 20:20 | 40.53907 | -74.80699 | 33900 ft | 435 kts | 233° |
| 2026-05-04 20:21 | 40.49712 | -74.86514 | 33903 ft | 435 kts | 232° |
| 2026-05-04 20:21 | 40.43469 | -74.95167 | 33907 ft | 434 kts | 232° |
| 2026-05-04 20:22 | 40.39365 | -75.00903 | 33910 ft | 434 kts | 233° |
| 2026-05-04 20:22 | 40.35224 | -75.06707 | 33912 ft | 436 kts | 233° |
| 2026-05-04 20:23 | 40.31091 | -75.12498 | 33913 ft | 435 kts | 233° |
| 2026-05-04 20:23 | 40.26951 | -75.18291 | 33910 ft | 436 kts | 233° |
| 2026-05-04 20:24 | 40.22798 | -75.24094 | 33912 ft | 437 kts | 232° |
| 2026-05-04 20:24 | 40.18653 | -75.29871 | 33915 ft | 437 kts | 232° |
| 2026-05-04 20:25 | 40.14518 | -75.35625 | 33918 ft | 437 kts | 232° |
| 2026-05-04 20:25 | 40.10337 | -75.41434 | 33921 ft | 438 kts | 232° |
| 2026-05-04 20:26 | 40.06186 | -75.47190 | 33925 ft | 437 kts | 232° |
| 2026-05-04 20:26 | 40.02003 | -75.52977 | 33921 ft | 437 kts | 232° |
| 2026-05-04 20:27 | 39.97849 | -75.58713 | 33920 ft | 437 kts | 232° |
| 2026-05-04 20:27 | 39.93691 | -75.64442 | 33929 ft | 437 kts | 232° |
| 2026-05-04 20:28 | 39.89574 | -75.70282 | 33921 ft | 436 kts | 234° |
| 2026-05-04 20:28 | 39.85729 | -75.76417 | 33918 ft | 437 kts | 237° |
| 2026-05-04 20:29 | 39.81991 | -75.82536 | 33916 ft | 433 kts | 236° |
| 2026-05-04 20:29 | 39.78223 | -75.88654 | 33911 ft | 436 kts | 236° |
| 2026-05-04 20:30 | 39.74429 | -75.94746 | 33910 ft | 435 kts | 236° |
| 2026-05-04 20:30 | 39.70622 | -76.00813 | 33907 ft | 434 kts | 236° |
| 2026-05-04 20:31 | 39.66797 | -76.06884 | 33899 ft | 435 kts | 236° |
| 2026-05-04 20:31 | 39.62985 | -76.12916 | 33908 ft | 434 kts | 235° |
| 2026-05-04 20:32 | 39.59151 | -76.18962 | 33914 ft | 434 kts | 235° |
| 2026-05-04 20:32 | 39.55276 | -76.24955 | 33926 ft | 433 kts | 234° |
| 2026-05-04 20:33 | 39.51401 | -76.30891 | 33922 ft | 432 kts | 234° |
| 2026-05-04 20:33 | 39.47514 | -76.36835 | 33932 ft | 432 kts | 235° |
| 2026-05-04 20:34 | 39.43516 | -76.42641 | 33925 ft | 435 kts | 231° |
| 2026-05-04 20:34 | 39.39250 | -76.48174 | 33918 ft | 437 kts | 230° |
| 2026-05-04 20:35 | 39.34952 | -76.53646 | 33924 ft | 434 kts | 230° |
| 2026-05-04 20:35 | 39.30663 | -76.59157 | 33921 ft | 434 kts | 230° |
| 2026-05-04 20:36 | 39.26428 | -76.64635 | 33925 ft | 434 kts | 230° |
| 2026-05-04 20:36 | 39.22172 | -76.70155 | 33918 ft | 433 kts | 230° |
| 2026-05-04 20:37 | 39.17922 | -76.75665 | 33920 ft | 434 kts | 229° |
| 2026-05-04 20:37 | 39.13685 | -76.81152 | 33914 ft | 432 kts | 229° |
| 2026-05-04 20:38 | 39.09443 | -76.86632 | 33909 ft | 430 kts | 230° |
| 2026-05-04 20:38 | 39.05216 | -76.92088 | 33901 ft | 430 kts | 229° |
| 2026-05-04 20:39 | 39.00992 | -76.97529 | 33906 ft | 429 kts | 229° |
| 2026-05-04 20:39 | 38.96789 | -77.02938 | 33902 ft | 428 kts | 229° |
| 2026-05-04 20:40 | 38.92579 | -77.08353 | 33901 ft | 429 kts | 230° |
| 2026-05-04 20:40 | 38.88383 | -77.13742 | 33900 ft | 428 kts | 230° |
| 2026-05-04 20:41 | 38.84171 | -77.19142 | 33899 ft | 427 kts | 230° |
| 2026-05-04 20:41 | 38.79966 | -77.24521 | 33902 ft | 426 kts | 230° |
| 2026-05-04 20:42 | 38.75776 | -77.29871 | 33908 ft | 426 kts | 230° |
| 2026-05-04 20:42 | 38.71556 | -77.35206 | 33903 ft | 428 kts | 228° |
| 2026-05-04 20:43 | 38.67173 | -77.40331 | 33905 ft | 427 kts | 226° |
| 2026-05-04 20:43 | 38.62735 | -77.45377 | 33908 ft | 426 kts | 226° |
| 2026-05-04 20:44 | 38.58338 | -77.50387 | 33912 ft | 425 kts | 227° |
| 2026-05-04 20:44 | 38.53973 | -77.55383 | 33912 ft | 424 kts | 227° |
| 2026-05-04 20:45 | 38.49589 | -77.60408 | 33911 ft | 421 kts | 227° |
| 2026-05-04 20:45 | 38.45230 | -77.65404 | 33910 ft | 423 kts | 226° |
| 2026-05-04 20:46 | 38.40854 | -77.70415 | 33909 ft | 423 kts | 226° |
| 2026-05-04 20:46 | 38.36471 | -77.75426 | 33907 ft | 421 kts | 226° |
| 2026-05-04 20:47 | 38.32141 | -77.80369 | 33909 ft | 423 kts | 226° |
| 2026-05-04 20:47 | 38.27781 | -77.85337 | 33913 ft | 420 kts | 226° |
| 2026-05-04 20:48 | 38.23424 | -77.90295 | 33915 ft | 421 kts | 226° |
| 2026-05-04 20:48 | 38.19066 | -77.95244 | 33922 ft | 419 kts | 226° |
| 2026-05-04 20:49 | 38.14715 | -78.00176 | 33924 ft | 417 kts | 226° |
| 2026-05-04 20:49 | 38.10382 | -78.05080 | 33924 ft | 418 kts | 227° |
| 2026-05-04 20:50 | 38.06067 | -78.09955 | 33927 ft | 416 kts | 226° |
| 2026-05-04 20:50 | 38.01740 | -78.14856 | 33926 ft | 417 kts | 228° |
| 2026-05-04 20:51 | 37.97763 | -78.20072 | 33928 ft | 410 kts | 233° |
| 2026-05-04 20:51 | 37.94004 | -78.25526 | 33928 ft | 410 kts | 234° |
| 2026-05-04 20:52 | 37.90257 | -78.30981 | 33925 ft | 410 kts | 233° |
| 2026-05-04 20:52 | 37.86496 | -78.36391 | 33924 ft | 410 kts | 233° |
| 2026-05-04 20:53 | 37.82735 | -78.41751 | 33924 ft | 409 kts | 233° |
| 2026-05-04 20:53 | 37.78943 | -78.47124 | 33927 ft | 407 kts | 233° |
| 2026-05-04 20:54 | 37.75171 | -78.52454 | 33934 ft | 408 kts | 233° |
| 2026-05-04 20:54 | 37.71410 | -78.57758 | 33943 ft | 407 kts | 233° |
| 2026-05-04 20:55 | 37.67639 | -78.63067 | 33949 ft | 408 kts | 233° |
| 2026-05-04 20:55 | 37.63837 | -78.68411 | 33958 ft | 406 kts | 233° |
| 2026-05-04 20:56 | 37.60090 | -78.73670 | 33958 ft | 405 kts | 233° |
| 2026-05-04 20:56 | 37.56325 | -78.78944 | 33960 ft | 404 kts | 233° |
| 2026-05-04 20:57 | 37.52538 | -78.84245 | 33960 ft | 405 kts | 233° |
| 2026-05-04 20:57 | 37.48785 | -78.89488 | 33961 ft | 405 kts | 233° |
| 2026-05-04 20:58 | 37.45018 | -78.94741 | 33963 ft | 403 kts | 233° |
| 2026-05-04 20:58 | 37.41248 | -78.99992 | 33962 ft | 404 kts | 233° |
| 2026-05-04 20:59 | 37.37506 | -79.05191 | 33964 ft | 403 kts | 233° |
| 2026-05-04 20:59 | 37.33749 | -79.10403 | 33960 ft | 402 kts | 233° |
| 2026-05-04 21:00 | 37.29987 | -79.15614 | 33958 ft | 402 kts | 233° |
| 2026-05-04 21:00 | 37.26247 | -79.20785 | 33959 ft | 399 kts | 233° |
| 2026-05-04 21:01 | 37.22565 | -79.25994 | 33960 ft | 401 kts | 236° |
| 2026-05-04 21:01 | 37.19064 | -79.31339 | 33962 ft | 397 kts | 236° |
| 2026-05-04 21:02 | 37.15593 | -79.36703 | 33962 ft | 398 kts | 236° |
| 2026-05-04 21:02 | 37.12088 | -79.42076 | 33962 ft | 397 kts | 236° |
| 2026-05-04 21:03 | 37.08577 | -79.47420 | 33961 ft | 398 kts | 236° |
| 2026-05-04 21:03 | 37.05082 | -79.52716 | 33965 ft | 395 kts | 236° |
| 2026-05-04 21:04 | 37.01572 | -79.58022 | 33960 ft | 396 kts | 236° |
| 2026-05-04 21:04 | 36.98077 | -79.63293 | 33965 ft | 395 kts | 236° |
| 2026-05-04 21:05 | 36.94553 | -79.68604 | 33966 ft | 397 kts | 236° |
| 2026-05-04 21:05 | 36.91031 | -79.73901 | 33966 ft | 396 kts | 235° |
| 2026-05-04 21:06 | 36.87513 | -79.79185 | 33970 ft | 396 kts | 236° |
| 2026-05-04 21:06 | 36.83993 | -79.84466 | 33972 ft | 396 kts | 236° |
| 2026-05-04 21:07 | 36.80484 | -79.89718 | 33975 ft | 396 kts | 236° |
| 2026-05-04 21:07 | 36.76848 | -79.94971 | 33845 ft | 409 kts | 231° |
| 2026-05-04 21:08 | 36.74707 | -79.97321 | 33579 ft | 417 kts | 222° |
| 2026-05-04 21:08 | 36.72172 | -79.99188 | 33313 ft | 426 kts | 212° |
| 2026-05-04 21:08 | 36.69402 | -80.00521 | 32889 ft | 432 kts | 204° |
| 2026-05-04 21:08 | 36.66497 | -80.01417 | 32253 ft | 435 kts | 198° |
| 2026-05-04 21:09 | 36.63492 | -80.01900 | 31547 ft | 441 kts | 190° |
| 2026-05-04 21:09 | 36.60392 | -80.01965 | 30801 ft | 445 kts | 185° |
| 2026-05-04 21:09 | 36.57332 | -80.01788 | 30326 ft | 440 kts | 182° |
| 2026-05-04 21:09 | 36.54293 | -80.01515 | 29828 ft | 438 kts | 181° |
| 2026-05-04 21:10 | 36.51220 | -80.01213 | 29307 ft | 442 kts | 181° |
| 2026-05-04 21:10 | 36.48166 | -80.00921 | 28790 ft | 439 kts | 181° |
| 2026-05-04 21:10 | 36.45159 | -80.00647 | 28236 ft | 435 kts | 181° |
| 2026-05-04 21:10 | 36.42151 | -80.00388 | 27564 ft | 429 kts | 181° |
| 2026-05-04 21:11 | 36.39222 | -80.00150 | 26831 ft | 424 kts | 181° |
| 2026-05-04 21:11 | 36.36304 | -79.99923 | 26041 ft | 421 kts | 181° |
| 2026-05-04 21:11 | 36.33373 | -79.99703 | 25295 ft | 416 kts | 181° |
| 2026-05-04 21:11 | 36.30522 | -79.99493 | 24593 ft | 411 kts | 181° |
| 2026-05-04 21:12 | 36.27692 | -79.99286 | 23850 ft | 407 kts | 181° |
| 2026-05-04 21:12 | 36.24878 | -79.99081 | 23129 ft | 402 kts | 181° |
| 2026-05-04 21:12 | 36.22091 | -79.98881 | 22513 ft | 397 kts | 181° |
| 2026-05-04 21:12 | 36.19369 | -79.98686 | 21984 ft | 393 kts | 181° |
| 2026-05-04 21:13 | 36.16637 | -79.98491 | 21475 ft | 389 kts | 181° |
| 2026-05-04 21:13 | 36.13976 | -79.98300 | 20975 ft | 384 kts | 181° |
| 2026-05-04 21:13 | 36.11303 | -79.98110 | 20475 ft | 380 kts | 181° |
| 2026-05-04 21:13 | 36.08701 | -79.98039 | 19988 ft | 376 kts | 186° |
| 2026-05-04 21:14 | 36.06103 | -79.98411 | 19484 ft | 374 kts | 197° |
| 2026-05-04 21:14 | 36.03641 | -79.99405 | 18981 ft | 367 kts | 208° |
| 2026-05-04 21:14 | 36.01412 | -80.00852 | 18468 ft | 359 kts | 216° |
| 2026-05-04 21:14 | 35.99353 | -80.02548 | 17968 ft | 353 kts | 220° |
| 2026-05-04 21:15 | 35.97425 | -80.04334 | 17467 ft | 349 kts | 222° |
| 2026-05-04 21:15 | 35.95528 | -80.06180 | 16968 ft | 345 kts | 223° |
| 2026-05-04 21:15 | 35.93661 | -80.08017 | 16472 ft | 343 kts | 223° |
| 2026-05-04 21:15 | 35.91778 | -80.09862 | 15981 ft | 348 kts | 223° |
| 2026-05-04 21:16 | 35.89898 | -80.11689 | 15476 ft | 348 kts | 223° |
| 2026-05-04 21:16 | 35.87993 | -80.13522 | 14968 ft | 344 kts | 223° |
| 2026-05-04 21:16 | 35.86101 | -80.15332 | 14454 ft | 341 kts | 223° |
| 2026-05-04 21:16 | 35.84260 | -80.17089 | 13970 ft | 338 kts | 223° |
| 2026-05-04 21:17 | 35.82407 | -80.18855 | 13471 ft | 335 kts | 223° |
| 2026-05-04 21:17 | 35.80577 | -80.20603 | 12985 ft | 332 kts | 223° |
| 2026-05-04 21:17 | 35.78762 | -80.22338 | 12495 ft | 329 kts | 223° |
| 2026-05-04 21:17 | 35.76970 | -80.24047 | 12018 ft | 326 kts | 223° |
| 2026-05-04 21:18 | 35.75181 | -80.25752 | 11536 ft | 324 kts | 222° |
| 2026-05-04 21:18 | 35.73402 | -80.27449 | 11055 ft | 321 kts | 222° |
| 2026-05-04 21:18 | 35.71654 | -80.29112 | 10624 ft | 313 kts | 222° |
| 2026-05-04 21:18 | 35.69982 | -80.30699 | 10381 ft | 300 kts | 222° |
| 2026-05-04 21:19 | 35.68369 | -80.32227 | 10270 ft | 284 kts | 222° |
| 2026-05-04 21:19 | 35.66850 | -80.33669 | 10168 ft | 268 kts | 222° |
| 2026-05-04 21:19 | 35.65413 | -80.35035 | 10036 ft | 256 kts | 223° |
| 2026-05-04 21:19 | 35.64051 | -80.36362 | 9964 ft | 241 kts | 229° |
| 2026-05-04 21:20 | 35.63157 | -80.38004 | 9722 ft | 227 kts | 255° |
| 2026-05-04 21:20 | 35.62766 | -80.39864 | 9358 ft | 225 kts | 261° |
| 2026-05-04 21:20 | 35.62464 | -80.41750 | 8986 ft | 226 kts | 262° |
| 2026-05-04 21:20 | 35.62181 | -80.43631 | 8631 ft | 225 kts | 262° |
| 2026-05-04 21:21 | 35.61907 | -80.45536 | 8273 ft | 226 kts | 262° |
| 2026-05-04 21:21 | 35.61646 | -80.47416 | 7934 ft | 225 kts | 262° |
| 2026-05-04 21:21 | 35.61394 | -80.49318 | 7591 ft | 225 kts | 262° |
| 2026-05-04 21:21 | 35.61158 | -80.51199 | 7246 ft | 225 kts | 262° |
| 2026-05-04 21:22 | 35.60929 | -80.53114 | 6892 ft | 226 kts | 262° |
| 2026-05-04 21:22 | 35.60715 | -80.54999 | 6542 ft | 226 kts | 262° |
| 2026-05-04 21:22 | 35.60480 | -80.56904 | 6205 ft | 226 kts | 253° |
| 2026-05-04 21:22 | 35.59657 | -80.58498 | 5874 ft | 223 kts | 220° |
| 2026-05-04 21:23 | 35.58422 | -80.59620 | 5686 ft | 215 kts | 216° |
| 2026-05-04 21:23 | 35.57252 | -80.60648 | 5584 ft | 203 kts | 217° |
| 2026-05-04 21:23 | 35.56136 | -80.61650 | 5473 ft | 191 kts | 217° |
| 2026-05-04 21:23 | 35.55088 | -80.62594 | 5354 ft | 180 kts | 217° |
| 2026-05-04 21:24 | 35.54102 | -80.63477 | 5165 ft | 174 kts | 217° |
| 2026-05-04 21:24 | 35.53139 | -80.64338 | 4873 ft | 166 kts | 217° |
| 2026-05-04 21:24 | 35.52208 | -80.65172 | 4465 ft | 165 kts | 216° |
| 2026-05-04 21:24 | 35.51299 | -80.65981 | 4160 ft | 158 kts | 216° |
| 2026-05-04 21:25 | 35.50437 | -80.66750 | 3886 ft | 150 kts | 216° |
| 2026-05-04 21:25 | 35.49612 | -80.67487 | 3592 ft | 143 kts | 215° |
| 2026-05-04 21:25 | 35.48817 | -80.68194 | 3232 ft | 143 kts | 215° |
| 2026-05-04 21:25 | 35.48010 | -80.68900 | 2865 ft | 142 kts | 211° |
| 2026-05-04 21:26 | 35.47072 | -80.69163 | 2482 ft | 144 kts | 176° |
| 2026-05-04 21:26 | 35.46081 | -80.69131 | 2107 ft | 142 kts | 195° |
| 2026-05-04 21:26 | 35.45184 | -80.69560 | 1789 ft | 137 kts | 200° |
| 2026-05-04 21:26 | 35.44233 | -80.69757 | 1570 ft | 139 kts | 189° |
| 2026-05-04 21:27 | 35.43290 | -80.69891 | 1423 ft | 136 kts | 189° |
| 2026-05-04 21:27 | 35.42325 | -80.70096 | 1269 ft | 143 kts | 194° |
| 2026-05-04 21:27 | 35.41344 | -80.70334 | 1068 ft | 144 kts | 193° |
| 2026-05-04 21:27 | 35.40356 | -80.70557 | 875 ft | 143 kts | 192° |
| 2026-05-04 21:28 | 35.39373 | -80.70778 | 690 ft | 139 kts | 191° |
| 2026-05-04 21:28 | 35.38618 | -80.70950 | 665 ft | 74 kts | 190° |
| 2026-05-04 21:28 | 35.38301 | -80.71021 | 650 ft | 24 kts | 190° |
| 2026-05-04 21:28 | 35.38182 | -80.71050 | 645 ft | 9 kts | 202° |
| 2026-05-04 21:29 | 35.38161 | -80.71124 | 642 ft | 7 kts | 278° |
| 2026-05-04 21:29 | 35.38159 | -80.71182 | 641 ft | 7 kts | 228° |
| 2026-05-04 21:29 | 35.38113 | -80.71203 | 639 ft | 5 kts | 193° |
| 2026-05-04 21:29 | 35.38091 | -80.71234 | 638 ft | 5 kts | 266° |
| 2026-05-04 21:30 | 35.38096 | -80.71278 | 637 ft | 4 kts | 278° |
| 2026-05-04 21:30 | 35.38097 | -80.71293 | 637 ft | 1 kts | 280° |
| 2026-05-04 21:30 | 35.38100 | -80.71307 | 637 ft | 0 kts | 280° |